Time;durP1;ratioP1;P1;durP2;ratioP2;P2;SDS_P1;SDS_P2;PMS_P1;PMS_P2;Temp;Humidity;BMP_temperature;BMP_pressure;BME280_temperature;BME280_humidity;BME280_pressure;Samples;Min_cycle;Max_cycle;Signal;HPM_P1;HPM_P2
2022/07/12 00:01:44;;;;;;;3.15;2.53;;;13.80;99.90;;;;;;5016772;28;20054;-91
2022/07/12 00:04:10;;;;;;;4.18;2.60;;;13.80;99.90;;;;;;4987903;28;20270;-90
2022/07/12 00:06:37;;;;;;;3.33;2.72;;;13.80;99.90;;;;;;4969197;28;20132;-91
2022/07/12 00:09:04;;;;;;;3.35;2.00;;;13.70;99.90;;;;;;5015820;28;20587;-90
2022/07/12 00:11:31;;;;;;;3.70;2.50;;;13.70;99.90;;;;;;5023078;28;20128;-90
2022/07/12 00:13:57;;;;;;;3.67;2.60;;;13.70;99.90;;;;;;4957243;28;20125;-90
2022/07/12 00:16:23;;;;;;;5.38;3.28;;;13.70;99.90;;;;;;4984588;28;20049;-90
2022/07/12 00:18:49;;;;;;;4.82;3.38;;;13.70;99.90;;;;;;4987267;28;20070;-90
2022/07/12 00:21:15;;;;;;;3.85;2.83;;;13.70;99.90;;;;;;5002775;28;20961;-91
2022/07/12 00:23:41;;;;;;;3.05;2.42;;;13.70;99.90;;;;;;4993676;28;20500;-91
2022/07/12 00:26:08;;;;;;;5.90;3.28;;;13.70;99.90;;;;;;4966841;28;20054;-91
2022/07/12 00:28:34;;;;;;;3.65;2.60;;;13.70;99.90;;;;;;4954960;28;20057;-91
2022/07/12 00:31:00;;;;;;;3.08;2.50;;;13.60;99.90;;;;;;4955979;28;20525;-91
2022/07/12 00:33:26;;;;;;;2.85;2.03;;;13.60;99.90;;;;;;4998928;28;20141;-91
2022/07/12 00:35:52;;;;;;;2.10;1.80;;;13.50;99.90;;;;;;4974881;28;20468;-90
2022/07/12 00:38:19;;;;;;;2.60;1.92;;;13.40;99.90;;;;;;4969189;28;20141;-91
2022/07/12 00:40:45;;;;;;;3.08;1.80;;;13.30;99.90;;;;;;5000575;28;20041;-91
2022/07/12 00:43:11;;;;;;;1.73;1.40;;;13.20;99.90;;;;;;5003752;28;20496;-90
2022/07/12 00:45:38;;;;;;;2.28;1.63;;;13.10;99.90;;;;;;4985161;28;20123;-91
2022/07/12 00:48:04;;;;;;;2.13;1.52;;;13.00;99.90;;;;;;4987196;28;20623;-92
2022/07/12 00:50:31;;;;;;;1.60;1.30;;;12.90;99.90;;;;;;5004347;28;20603;-91
2022/07/12 00:52:58;;;;;;;1.25;1.02;;;12.90;99.90;;;;;;4969657;28;20042;-91
2022/07/12 00:55:24;;;;;;;1.67;1.40;;;12.80;99.90;;;;;;4995099;28;20052;-91
2022/07/12 00:57:51;;;;;;;1.65;1.33;;;12.80;99.90;;;;;;4988306;28;20049;-91
2022/07/12 01:00:21;;;;;;;2.53;1.77;;;12.80;99.90;;;;;;5024042;28;20046;-90
2022/07/12 01:02:48;;;;;;;1.77;1.45;;;12.80;99.90;;;;;;5021695;28;20068;-91
2022/07/12 01:05:14;;;;;;;2.05;1.60;;;12.80;99.90;;;;;;5004690;28;20443;-91
2022/07/12 01:07:40;;;;;;;2.40;1.60;;;12.80;99.90;;;;;;4972479;28;20058;-91
2022/07/12 01:10:08;;;;;;;2.17;1.73;;;12.80;99.90;;;;;;5007581;28;20049;-91
2022/07/12 01:12:34;;;;;;;3.75;2.13;;;12.80;99.90;;;;;;5009709;28;20052;-91
2022/07/12 01:15:01;;;;;;;4.05;1.95;;;12.70;99.90;;;;;;5003248;28;20080;-91
2022/07/12 01:17:28;;;;;;;2.20;1.70;;;12.80;99.90;;;;;;4994223;28;20057;-91
2022/07/12 01:19:56;;;;;;;3.90;1.58;;;12.80;99.90;;;;;;5061406;28;20056;-91
2022/07/12 01:22:32;;;;;;;2.38;1.55;;;12.70;99.90;;;;;;4995320;28;20049;-91
2022/07/12 01:25:00;;;;;;;2.47;1.70;;;12.80;99.90;;;;;;5003024;28;20053;-91
2022/07/12 01:27:27;;;;;;;3.97;1.70;;;12.80;99.90;;;;;;5040201;28;20054;-91
2022/07/12 01:29:56;;;;;;;2.47;1.88;;;12.80;99.90;;;;;;4997591;28;20046;-92
2022/07/12 01:32:25;;;;;;;2.55;1.73;;;12.70;99.90;;;;;;5033406;28;20191;-92
2022/07/12 01:34:56;;;;;;;2.40;1.90;;;12.70;99.90;;;;;;4986081;28;20368;-90
2022/07/12 01:37:27;;;;;;;2.75;2.13;;;12.70;99.90;;;;;;5000001;28;20060;-91
2022/07/12 01:39:56;;;;;;;4.25;2.33;;;12.70;99.90;;;;;;5017713;28;20282;-91
2022/07/12 01:42:24;;;;;;;2.33;1.83;;;12.70;99.90;;;;;;4982703;28;20046;-91
2022/07/12 01:44:51;;;;;;;3.65;1.83;;;12.70;99.90;;;;;;5000711;28;20034;-91
2022/07/12 01:47:19;;;;;;;2.90;1.80;;;12.70;99.90;;;;;;4984099;28;20116;-91
2022/07/12 01:49:45;;;;;;;2.50;1.83;;;12.60;99.90;;;;;;4971376;28;20104;-91
2022/07/12 01:52:12;;;;;;;2.20;1.85;;;12.60;99.90;;;;;;4985397;28;20524;-91
2022/07/12 01:54:38;;;;;;;3.13;1.73;;;12.50;99.90;;;;;;4982131;28;20919;-91
2022/07/12 01:57:05;;;;;;;1.98;1.58;;;12.50;99.90;;;;;;4989830;28;20057;-90
2022/07/12 01:59:32;;;;;;;2.47;1.80;;;12.50;99.90;;;;;;4975886;28;20127;-91
2022/07/12 02:02:00;;;;;;;2.78;1.70;;;12.50;99.90;;;;;;5000799;28;20046;-91
2022/07/12 02:04:27;;;;;;;2.08;1.52;;;12.50;99.90;;;;;;4989206;28;20041;-91
2022/07/12 02:06:54;;;;;;;4.57;2.22;;;12.40;99.90;;;;;;5007243;28;20044;-91
2022/07/12 02:09:20;;;;;;;4.38;2.10;;;12.50;99.90;;;;;;4989034;28;20423;-91
2022/07/12 02:11:47;;;;;;;3.67;2.22;;;12.50;99.90;;;;;;4976520;28;20074;-92
2022/07/12 02:14:14;;;;;;;3.60;2.05;;;12.40;99.90;;;;;;4992000;28;20103;-91
2022/07/12 02:16:41;;;;;;;3.70;1.90;;;12.40;99.90;;;;;;5019857;28;20556;-91
2022/07/12 02:19:08;;;;;;;4.35;1.85;;;12.40;99.90;;;;;;5008433;28;20065;-91
2022/07/12 02:21:34;;;;;;;2.58;1.85;;;12.40;99.90;;;;;;4992136;28;20053;-91
2022/07/12 02:24:01;;;;;;;2.45;1.70;;;12.40;99.90;;;;;;4973406;28;20100;-91
2022/07/12 02:26:27;;;;;;;2.58;1.98;;;12.40;99.90;;;;;;4998967;28;20074;-92
2022/07/12 02:28:54;;;;;;;4.80;2.17;;;12.30;99.90;;;;;;5010614;28;20045;-90
2022/07/12 02:31:21;;;;;;;5.40;2.13;;;12.30;99.90;;;;;;4993334;28;20061;-90
2022/07/12 02:33:47;;;;;;;3.53;2.30;;;12.30;99.90;;;;;;4976976;28;20046;-91
2022/07/12 02:36:16;;;;;;;3.45;2.63;;;12.20;99.90;;;;;;5009133;28;20275;-90
2022/07/12 02:38:42;;;;;;;3.92;2.65;;;12.20;99.90;;;;;;5010818;28;20425;-90
2022/07/12 02:41:09;;;;;;;2.95;2.28;;;12.20;99.90;;;;;;4993743;28;20053;-91
2022/07/12 02:43:35;;;;;;;4.32;2.45;;;12.10;99.90;;;;;;4991209;28;20073;-91
2022/07/12 02:46:07;;;;;;;3.70;2.60;;;12.10;99.90;;;;;;5004978;28;20058;-91
2022/07/12 02:48:34;;;;;;;3.80;2.45;;;12.00;99.90;;;;;;4993454;28;20050;-90
2022/07/12 02:51:01;;;;;;;4.63;2.42;;;12.00;99.90;;;;;;5006505;28;20159;-90
2022/07/12 02:53:28;;;;;;;3.08;2.28;;;12.00;99.90;;;;;;4959336;28;20037;-90
2022/07/12 02:55:54;;;;;;;3.45;2.45;;;11.90;99.90;;;;;;4976283;28;20124;-91
2022/07/12 02:58:20;;;;;;;3.22;2.22;;;11.90;99.90;;;;;;4987192;28;20045;-91
2022/07/12 03:00:47;;;;;;;2.78;1.90;;;11.90;99.90;;;;;;4985707;28;20042;-91
2022/07/12 03:03:14;;;;;;;3.00;2.00;;;11.90;99.90;;;;;;4989948;28;20076;-92
2022/07/12 03:05:44;;;;;;;4.85;2.45;;;11.80;99.90;;;;;;4996838;28;20509;-91
2022/07/12 03:08:11;;;;;;;4.03;2.22;;;11.80;99.90;;;;;;5002764;28;20121;-91
2022/07/12 03:10:38;;;;;;;4.38;2.42;;;11.80;99.90;;;;;;5005184;28;20474;-91
2022/07/12 03:13:05;;;;;;;3.72;1.85;;;11.80;99.90;;;;;;5022186;28;20606;-91
2022/07/12 03:15:33;;;;;;;3.58;2.05;;;11.80;99.90;;;;;;4987918;28;20512;-91
2022/07/12 03:18:03;;;;;;;4.18;2.55;;;11.80;99.90;;;;;;5006483;28;20048;-91
2022/07/12 03:20:30;;;;;;;8.52;3.10;;;11.70;99.90;;;;;;4982159;28;20568;-91
2022/07/12 03:22:57;;;;;;;11.20;2.80;;;11.70;99.90;;;;;;4972683;28;20045;-91
2022/07/12 03:25:24;;;;;;;5.45;2.50;;;11.60;99.90;;;;;;5003851;28;20058;-91
2022/07/12 03:27:50;;;;;;;7.50;2.33;;;11.60;99.90;;;;;;4985354;28;20041;-91
2022/07/12 03:30:17;;;;;;;8.43;2.70;;;11.60;99.90;;;;;;4987957;28;20117;-91
2022/07/12 03:32:44;;;;;;;4.75;3.00;;;11.60;99.90;;;;;;4972827;28;20096;-91
2022/07/12 03:35:10;;;;;;;3.70;2.65;;;11.60;99.90;;;;;;4971032;28;20042;-91
2022/07/12 03:37:51;;;;;;;3.30;2.30;;;11.50;99.90;;;;;;5004102;28;20042;-91
2022/07/12 03:40:20;;;;;;;4.10;3.00;;;11.50;99.90;;;;;;5010975;28;20081;-88
2022/07/12 03:42:46;;;;;;;5.45;3.80;;;11.50;99.90;;;;;;5037027;28;20046;-91
2022/07/12 03:45:14;;;;;;;5.53;3.35;;;11.40;99.90;;;;;;4990982;28;20041;-90
2022/07/12 03:47:41;;;;;;;3.78;3.05;;;11.40;99.90;;;;;;4988233;28;20169;-91
2022/07/12 03:50:10;;;;;;;3.67;2.95;;;11.40;99.90;;;;;;5011161;28;20497;-91
2022/07/12 03:52:37;;;;;;;5.07;2.85;;;11.40;99.90;;;;;;5006674;28;20034;-91
2022/07/12 03:55:03;;;;;;;4.13;2.95;;;11.50;99.90;;;;;;4978473;28;20049;-91
2022/07/12 03:57:30;;;;;;;4.47;3.20;;;11.50;99.90;;;;;;4967673;28;20049;-91
2022/07/12 03:59:56;;;;;;;3.55;2.53;;;11.50;99.90;;;;;;5004228;28;20236;-91
2022/07/12 04:02:23;;;;;;;6.03;3.20;;;11.50;99.90;;;;;;5004429;28;20077;-91
2022/07/12 04:04:51;;;;;;;6.63;2.92;;;11.60;99.90;;;;;;4973958;28;20489;-90
2022/07/12 04:07:17;;;;;;;28.92;3.60;;;11.60;99.90;;;;;;4971645;28;20062;-91
2022/07/12 04:09:46;;;;;;;4.18;2.78;;;11.60;99.90;;;;;;5007899;28;20042;-91
2022/07/12 04:12:14;;;;;;;3.88;2.85;;;11.60;99.90;;;;;;4985837;28;20049;-91
2022/07/12 04:14:40;;;;;;;2.85;2.42;;;11.60;99.90;;;;;;4972521;28;20034;-91
2022/07/12 04:17:07;;;;;;;4.13;2.35;;;11.60;99.90;;;;;;4970376;28;20361;-91
2022/07/12 04:19:34;;;;;;;3.22;2.47;;;11.70;99.90;;;;;;4988129;28;20065;-91
2022/07/12 04:22:00;;;;;;;2.95;2.38;;;11.80;99.90;;;;;;5004164;28;20045;-91
2022/07/12 04:24:26;;;;;;;3.53;2.45;;;11.80;99.90;;;;;;4988039;28;20052;-90
2022/07/12 04:26:53;;;;;;;2.88;1.80;;;11.80;99.90;;;;;;4980538;28;20072;-91
2022/07/12 04:29:21;;;;;;;3.80;1.92;;;11.90;99.90;;;;;;4974844;28;20049;-91
2022/07/12 04:31:48;;;;;;;2.70;2.00;;;11.90;99.90;;;;;;4994542;28;20038;-91
2022/07/12 04:34:17;;;;;;;1.88;1.67;;;11.90;99.90;;;;;;5009580;28;20057;-90
2022/07/12 04:36:47;;;;;;;3.38;2.40;;;12.00;99.90;;;;;;4988323;28;20493;-90
2022/07/12 04:39:14;;;;;;;4.43;3.00;;;12.10;99.90;;;;;;4972404;28;20041;-91
2022/07/12 04:41:40;;;;;;;3.28;2.45;;;12.10;99.90;;;;;;4989311;28;20042;-91
2022/07/12 04:44:07;;;;;;;2.55;2.00;;;12.20;99.90;;;;;;4985522;28;20052;-91
2022/07/12 04:46:35;;;;;;;2.47;2.13;;;12.20;99.90;;;;;;5039178;28;20106;-91
2022/07/12 04:49:01;;;;;;;3.00;2.13;;;12.30;99.90;;;;;;4956588;28;20074;-91
2022/07/12 04:51:28;;;;;;;3.42;2.50;;;12.40;99.90;;;;;;4973360;28;20050;-90
2022/07/12 04:53:55;;;;;;;4.18;3.10;;;12.40;99.90;;;;;;5014149;28;20069;-90
2022/07/12 04:56:21;;;;;;;4.53;2.67;;;12.40;99.90;;;;;;4979331;28;20039;-90
2022/07/12 04:58:48;;;;;;;4.90;3.00;;;12.50;99.90;;;;;;5036455;28;20046;-90
2022/07/12 05:01:16;;;;;;;6.60;2.72;;;12.60;99.90;;;;;;4994557;28;20042;-90
2022/07/12 05:03:44;;;;;;;6.65;3.22;;;12.60;99.90;;;;;;5025970;28;20050;-91
2022/07/12 05:06:14;;;;;;;6.18;3.05;;;12.70;99.90;;;;;;5012937;28;20080;-92
2022/07/12 05:08:41;;;;;;;5.68;3.00;;;12.80;99.90;;;;;;5014930;28;20072;-92
2022/07/12 05:11:11;;;;;;;7.70;3.42;;;12.90;99.90;;;;;;4995533;28;20046;-92
2022/07/12 05:13:37;;;;;;;7.45;3.08;;;13.20;99.90;;;;;;4998013;28;20425;-90
2022/07/12 05:16:05;;;;;;;4.95;2.78;;;13.70;99.90;;;;;;4993648;28;20100;-89
2022/07/12 05:18:32;;;;;;;4.78;2.72;;;14.10;99.90;;;;;;5031190;28;20130;-92
2022/07/12 05:21:06;;;;;;;6.15;2.53;;;14.70;99.90;;;;;;4997114;28;20046;-91
2022/07/12 05:23:34;;;;;;;3.78;2.72;;;15.10;99.90;;;;;;4981895;28;20516;-90
2022/07/12 05:26:02;;;;;;;5.78;3.15;;;15.40;99.90;;;;;;4998201;28;20580;-90
2022/07/12 05:28:28;;;;;;;4.60;2.85;;;15.70;99.90;;;;;;4992821;28;20056;-91
2022/07/12 05:30:54;;;;;;;5.45;3.35;;;15.90;99.90;;;;;;5019402;28;20042;-87
2022/07/12 05:33:20;;;;;;;3.47;2.80;;;16.10;99.90;;;;;;4987353;28;20048;-87
2022/07/12 05:35:48;;;;;;;5.15;3.20;;;16.30;99.90;;;;;;4969688;28;20077;-87
2022/07/12 05:38:14;;;;;;;5.07;3.05;;;16.60;99.90;;;;;;5005442;28;20514;-87
2022/07/12 05:40:40;;;;;;;4.15;3.15;;;17.00;99.90;;;;;;5020202;28;20074;-87
2022/07/12 05:43:07;;;;;;;5.07;3.25;;;17.40;99.90;;;;;;5031740;28;20030;-87
2022/07/12 05:45:33;;;;;;;4.63;3.17;;;17.70;99.90;;;;;;5007994;28;20032;-86
2022/07/12 05:47:59;;;;;;;4.35;3.30;;;17.90;99.90;;;;;;5022892;28;20065;-87
2022/07/12 05:50:26;;;;;;;7.18;3.70;;;18.20;99.90;;;;;;5026643;28;20050;-87
2022/07/12 05:55:37;;;;;;;5.85;3.47;;;18.70;99.90;;;;;;5001002;28;20052;-88
2022/07/12 05:58:03;;;;;;;4.90;3.25;;;19.00;99.90;;;;;;5001434;28;20499;-88
2022/07/12 06:00:32;;;;;;;5.45;3.53;;;19.20;99.90;;;;;;4975321;28;20045;-88
2022/07/12 06:02:58;;;;;;;7.22;3.33;;;19.50;99.90;;;;;;4984623;28;20540;-86
2022/07/12 06:05:24;;;;;;;8.75;6.00;;;19.60;99.90;;;;;;4971060;28;20053;-87
2022/07/12 06:07:51;;;;;;;4.28;3.72;;;19.80;99.90;;;;;;4974698;28;20136;-86
2022/07/12 06:10:17;;;;;;;4.50;4.00;;;19.70;99.90;;;;;;4974277;28;20088;-86
2022/07/12 06:12:46;;;;;;;5.72;4.25;;;19.30;99.90;;;;;;4971126;28;20134;-86
2022/07/12 06:15:12;;;;;;;5.30;3.97;;;19.10;99.90;;;;;;5002427;28;20054;-87
2022/07/12 06:17:39;;;;;;;5.18;4.32;;;18.90;99.90;;;;;;4970120;28;20048;-87
2022/07/12 06:20:06;;;;;;;6.53;4.40;;;18.70;99.90;;;;;;5004115;28;20102;-87
2022/07/12 06:22:32;;;;;;;5.63;4.22;;;18.60;99.90;;;;;;5004982;28;20042;-87
2022/07/12 06:24:58;;;;;;;4.38;3.80;;;18.50;99.90;;;;;;5007464;28;20386;-85
2022/07/12 06:27:24;;;;;;;4.75;4.25;;;18.40;99.90;;;;;;4955601;28;20054;-85
2022/07/12 06:29:51;;;;;;;5.07;4.35;;;18.40;99.90;;;;;;5002898;28;20057;-85
2022/07/12 06:32:17;;;;;;;6.57;4.45;;;18.40;99.90;;;;;;5002902;28;20046;-85
2022/07/12 06:34:44;;;;;;;4.93;4.43;;;18.50;99.90;;;;;;4958337;28;20042;-85
2022/07/12 06:37:12;;;;;;;5.25;3.88;;;18.40;99.90;;;;;;4956240;28;20050;-85
2022/07/12 06:39:48;;;;;;;5.30;4.07;;;18.40;99.90;;;;;;4974082;28;20122;-86
2022/07/12 06:42:15;;;;;;;7.25;4.50;;;18.40;99.90;;;;;;4988529;28;20081;-86
2022/07/12 06:44:52;;;;;;;5.13;4.32;;;18.60;99.90;;;;;;4971040;28;20056;-87
2022/07/12 06:47:19;;;;;;;4.80;4.18;;;18.70;99.90;;;;;;4987565;28;20046;-86
2022/07/12 06:49:45;;;;;;;4.57;4.10;;;18.80;99.90;;;;;;5007538;28;20057;-86
2022/07/12 06:52:12;;;;;;;6.18;4.47;;;18.90;99.90;;;;;;4969295;28;20042;-87
2022/07/12 06:54:38;;;;;;;5.47;4.68;;;19.00;99.90;;;;;;4970176;28;20052;-86
2022/07/12 06:57:05;;;;;;;5.97;4.15;;;19.10;99.90;;;;;;4985978;28;20045;-86
2022/07/12 06:59:31;;;;;;;5.03;3.80;;;19.10;99.90;;;;;;4984213;28;20074;-87
2022/07/12 07:01:58;;;;;;;5.03;4.43;;;19.30;99.90;;;;;;4965095;28;20067;-87
2022/07/12 07:04:24;;;;;;;3.88;3.38;;;19.60;99.90;;;;;;4984840;28;20137;-87
2022/07/12 07:06:51;;;;;;;4.10;3.40;;;19.80;99.90;;;;;;4970755;28;20033;-87
2022/07/12 07:09:18;;;;;;;6.20;3.63;;;20.10;99.90;;;;;;5003097;28;20042;-86
2022/07/12 07:11:44;;;;;;;4.35;3.63;;;20.50;99.90;;;;;;5034409;28;20045;-86
2022/07/12 07:14:11;;;;;;;5.45;3.60;;;20.50;99.90;;;;;;4956706;28;20048;-86
2022/07/12 07:16:37;;;;;;;4.15;3.55;;;20.70;99.90;;;;;;4952885;28;20056;-86
2022/07/12 07:19:05;;;;;;;5.57;4.80;;;20.80;99.90;;;;;;5013999;28;20240;-86
2022/07/12 07:21:31;;;;;;;5.90;3.60;;;21.10;99.90;;;;;;4968445;28;20501;-86
2022/07/12 07:23:58;;;;;;;6.47;3.70;;;21.20;99.90;;;;;;4999330;28;20478;-86
2022/07/12 07:26:24;;;;;;;4.38;3.28;;;21.40;99.90;;;;;;4985042;28;20088;-87
2022/07/12 07:31:36;;;;;;;4.93;3.35;;;21.80;99.90;;;;;;4971730;28;20058;-87
2022/07/12 07:34:03;;;;;;;4.55;3.88;;;22.30;99.90;;;;;;4983745;28;20129;-86
2022/07/12 07:36:30;;;;;;;4.72;3.58;;;22.30;99.90;;;;;;4974905;28;20883;-86
2022/07/12 07:38:57;;;;;;;4.90;4.40;;;22.70;99.90;;;;;;4994087;28;20502;-86
2022/07/12 07:41:24;;;;;;;10.85;9.82;;;22.90;99.90;;;;;;4991004;28;20432;-86
2022/07/12 07:43:50;;;;;;;3.90;3.10;;;23.10;99.90;;;;;;5017638;28;20050;-87
2022/07/12 07:46:17;;;;;;;4.78;3.13;;;23.40;99.90;;;;;;4986094;28;20509;-87
2022/07/12 07:48:44;;;;;;;8.10;7.32;;;23.70;99.90;;;;;;5017980;28;20120;-86
2022/07/12 07:51:10;;;;;;;3.38;2.75;;;23.60;99.90;;;;;;5000708;28;20046;-86
2022/07/12 07:53:36;;;;;;;3.42;2.97;;;23.80;99.90;;;;;;4970335;28;20065;-86
2022/07/12 07:56:03;;;;;;;4.00;2.85;;;24.00;99.90;;;;;;4967375;28;20056;-86
2022/07/12 07:58:29;;;;;;;3.42;3.05;;;23.90;99.90;;;;;;4993417;28;20481;-86
2022/07/12 08:00:55;;;;;;;15.68;14.13;;;23.80;99.90;;;;;;4984710;28;20042;-87
2022/07/12 08:03:22;;;;;;;11.25;10.30;;;23.70;99.90;;;;;;4968374;28;20050;-86
2022/07/12 08:05:50;;;;;;;4.13;3.70;;;23.60;99.90;;;;;;4999860;28;20046;-86
2022/07/12 08:08:17;;;;;;;17.90;16.30;;;23.80;99.90;;;;;;4952353;28;20188;-87
2022/07/12 08:10:44;;;;;;;44.78;8.40;;;24.20;99.90;;;;;;5001069;28;20046;-87
2022/07/12 08:13:10;;;;;;;13.27;9.20;;;24.60;99.90;;;;;;4985647;28;20050;-87
2022/07/12 08:15:36;;;;;;;6.22;3.50;;;24.60;99.90;;;;;;4986540;28;20045;-88
2022/07/12 08:18:03;;;;;;;4.82;4.35;;;24.90;99.90;;;;;;4969582;28;20153;-87
2022/07/12 08:20:29;;;;;;;4.93;3.20;;;25.00;99.90;;;;;;4968629;28;20065;-87
2022/07/12 08:22:55;;;;;;;6.15;5.07;;;25.40;99.90;;;;;;4976697;28;20584;-87
2022/07/12 08:25:22;;;;;;;3.38;2.95;;;25.50;99.90;;;;;;4989760;28;20133;-87
2022/07/12 08:27:48;;;;;;;3.95;2.72;;;25.60;99.90;;;;;;4976132;28;20049;-87
2022/07/12 08:30:15;;;;;;;5.75;3.25;;;26.10;99.90;;;;;;4990110;28;20056;-87
2022/07/12 08:32:45;;;;;;;5.03;4.05;;;26.30;99.90;;;;;;4951482;28;20060;-87
2022/07/12 08:35:11;;;;;;;4.80;4.15;;;26.20;99.90;;;;;;5018577;28;20045;-87
2022/07/12 08:37:42;;;;;;;4.97;4.43;;;25.90;99.90;;;;;;4967935;28;20490;-86
2022/07/12 08:40:09;;;;;;;5.68;4.78;;;25.90;99.90;;;;;;4998166;28;20151;-86
2022/07/12 08:42:35;;;;;;;6.90;4.38;;;25.60;99.90;;;;;;5000975;28;20136;-87
2022/07/12 08:45:02;;;;;;;13.65;12.43;;;25.60;99.90;;;;;;4975857;28;20057;-87
2022/07/12 08:47:28;;;;;;;9.88;9.00;;;25.70;99.90;;;;;;5002638;28;20449;-86
2022/07/12 08:50:16;;;;;;;5.90;4.78;;;25.50;99.90;;;;;;4990181;28;20088;-87
2022/07/12 08:52:44;;;;;;;6.72;5.80;;;25.50;99.90;;;;;;5024970;28;20053;-86
2022/07/12 08:55:26;;;;;;;6.03;5.32;;;25.70;99.90;;;;;;5019502;28;20037;-86
2022/07/12 08:57:54;;;;;;;4.82;3.75;;;25.80;99.90;;;;;;5015433;28;20348;-87
2022/07/12 09:00:21;;;;;;;5.78;3.90;;;25.90;99.90;;;;;;4969714;28;20049;-87
2022/07/12 09:02:57;;;;;;;5.32;4.30;;;26.10;99.90;;;;;;5002767;28;20049;-86
2022/07/12 09:05:29;;;;;;;6.28;4.13;;;26.10;99.90;;;;;;4992394;28;20049;-86
2022/07/12 09:08:07;;;;;;;4.45;3.97;;;26.10;99.90;;;;;;4954034;28;20096;-85
2022/07/12 09:11:09;;;;;;;6.43;5.30;;;25.70;99.90;;;;;;4998085;28;20053;-86
2022/07/12 09:14:13;;;;;;;5.38;4.38;;;26.20;99.90;;;;;;4981815;28;20054;-87
2022/07/12 09:16:42;;;;;;;5.13;4.50;;;26.50;99.90;;;;;;4970475;28;20050;-87
2022/07/12 09:19:19;;;;;;;8.10;5.50;;;26.80;99.90;;;;;;5017946;28;20099;-87
2022/07/12 09:21:52;;;;;;;7.55;5.30;;;27.00;99.90;;;;;;4970819;28;20501;-87
2022/07/12 09:24:20;;;;;;;7.57;6.82;;;27.20;99.90;;;;;;5022673;28;20045;-87
2022/07/12 09:26:46;;;;;;;4.90;4.40;;;27.30;99.90;;;;;;4973372;28;20052;-87
2022/07/12 09:29:18;;;;;;;5.15;3.90;;;27.20;99.90;;;;;;4986046;28;20046;-87
2022/07/12 09:37:20;;;;;;;6.13;5.57;;;27.80;99.90;;;;;;5004615;28;20068;-87
2022/07/12 09:39:48;;;;;;;19.25;17.40;;;27.80;99.90;;;;;;4975066;28;20038;-88
2022/07/12 09:42:14;;;;;;;6.32;5.72;;;28.20;99.90;;;;;;5012420;28;20039;-87
2022/07/12 09:44:41;;;;;;;4.68;4.20;;;28.50;99.90;;;;;;5001417;28;20076;-87
2022/07/12 09:47:16;;;;;;;7.35;4.60;;;28.00;99.90;;;;;;5011991;28;20128;-87
2022/07/12 09:49:43;;;;;;;6.22;5.53;;;27.90;99.90;;;;;;5003757;28;20048;-87
2022/07/12 09:52:19;;;;;;;5.18;3.33;;;27.60;99.90;;;;;;4998472;28;20048;-87
2022/07/12 09:54:46;;;;;;;17.45;15.95;;;27.70;99.90;;;;;;4969771;28;20050;-87
2022/07/12 09:57:19;;;;;;;2.83;2.40;;;27.60;99.90;;;;;;5005545;28;20038;-87
2022/07/12 09:59:46;;;;;;;4.38;3.30;;;27.40;99.90;;;;;;4984170;28;20053;-88
2022/07/12 10:02:15;;;;;;;22.95;4.65;;;27.60;99.90;;;;;;5004865;28;20247;-87
2022/07/12 10:04:42;;;;;;;4.57;3.50;;;27.80;99.90;;;;;;4990918;28;21400;-87
2022/07/12 10:07:13;;;;;;;3.90;2.97;;;27.90;99.90;;;;;;4985858;28;20065;-87
2022/07/12 10:09:45;;;;;;;6.13;5.00;;;28.30;99.90;;;;;;4983866;28;20080;-86
2022/07/12 10:12:16;;;;;;;3.67;2.90;;;28.10;99.90;;;;;;5008102;28;20046;-85
2022/07/12 10:14:43;;;;;;;4.88;3.38;;;28.30;99.90;;;;;;5007363;28;20022;-86
2022/07/12 10:17:12;;;;;;;4.15;2.85;;;28.60;99.90;;;;;;4954749;28;20038;-86
2022/07/12 10:19:41;;;;;;;3.45;2.80;;;28.50;99.90;;;;;;4992697;28;20430;-84
2022/07/12 10:22:20;;;;;;;3.97;2.38;;;28.60;99.90;;;;;;4990587;28;20541;-85
2022/07/12 10:24:54;;;;;;;4.70;3.92;;;28.80;99.90;;;;;;4988661;28;20084;-86
2022/07/12 10:27:21;;;;;;;3.50;2.42;;;28.50;99.90;;;;;;4987453;28;20045;-87
2022/07/12 10:29:49;;;;;;;4.35;3.20;;;28.80;99.90;;;;;;4991523;28;20519;-86
2022/07/12 10:32:35;;;;;;;4.75;2.80;;;28.80;99.90;;;;;;4978331;28;20048;-86
2022/07/12 10:35:07;;;;;;;3.28;2.70;;;29.30;99.90;;;;;;4996253;28;20042;-86
2022/07/12 10:37:34;;;;;;;5.60;3.13;;;29.60;99.90;;;;;;5002735;28;20074;-86
2022/07/12 10:40:18;;;;;;;3.83;2.53;;;29.20;99.90;;;;;;5002664;28;20073;-86
2022/07/12 10:43:03;;;;;;;3.55;2.75;;;29.10;99.90;;;;;;4994321;28;20528;-85
2022/07/12 10:45:40;;;;;;;3.88;3.15;;;29.00;99.90;;;;;;5002689;28;20144;-87
2022/07/12 10:48:13;;;;;;;3.85;2.50;;;28.80;99.90;;;;;;4986283;28;20774;-87
2022/07/12 10:50:44;;;;;;;2.97;1.90;;;28.90;99.90;;;;;;5020818;28;20470;-86
2022/07/12 10:53:21;;;;;;;6.43;3.10;;;29.20;99.90;;;;;;4984770;28;20034;-86
2022/07/12 10:56:17;;;;;;;2.70;2.20;;;29.40;99.90;;;;;;5009129;28;20045;-86
2022/07/12 10:58:46;;;;;;;3.38;2.47;;;29.20;99.90;;;;;;5016839;28;20041;-86
2022/07/12 11:01:26;;;;;;;3.03;2.30;;;29.80;99.90;;;;;;5034797;28;20054;-86
2022/07/12 11:04:07;;;;;;;3.03;2.03;;;29.80;98.20;;;;;;5004388;28;20505;-86
2022/07/12 11:06:39;;;;;;;2.97;2.20;;;29.80;99.70;;;;;;5001355;28;20056;-87
2022/07/12 11:09:08;;;;;;;3.80;1.95;;;30.30;98.60;;;;;;5002398;28;20434;-86
2022/07/12 11:11:48;;;;;;;2.55;1.73;;;30.40;97.40;;;;;;5017631;28;20445;-86
2022/07/12 11:14:22;;;;;;;4.07;2.03;;;30.40;98.10;;;;;;5020382;28;20037;-86
2022/07/12 11:16:51;;;;;;;2.45;2.10;;;29.90;94.30;;;;;;4969054;28;20044;-86
2022/07/12 11:19:26;;;;;;;2.33;1.73;;;29.90;95.70;;;;;;4984376;28;20057;-86
2022/07/12 11:21:56;;;;;;;4.05;1.90;;;29.90;96.70;;;;;;4986292;28;20046;-86
2022/07/12 11:24:24;;;;;;;2.75;1.52;;;29.90;97.30;;;;;;5015811;28;20060;-86
2022/07/12 11:26:52;;;;;;;1.85;1.42;;;30.10;98.80;;;;;;4976102;28;20042;-86
2022/07/12 11:29:19;;;;;;;2.08;1.33;;;30.00;96.40;;;;;;4989960;28;20828;-86
2022/07/12 11:31:46;;;;;;;2.47;1.52;;;30.00;98.40;;;;;;4985621;28;20046;-86
2022/07/12 11:34:23;;;;;;;3.10;1.55;;;30.40;96.50;;;;;;4971372;28;20042;-86
2022/07/12 11:36:58;;;;;;;2.55;1.30;;;30.40;95.80;;;;;;4967386;28;20052;-86
2022/07/12 11:39:41;;;;;;;3.00;1.27;;;30.10;96.70;;;;;;5009924;28;20050;-85
2022/07/12 11:42:10;;;;;;;1.48;1.05;;;30.60;93.70;;;;;;5005478;28;20042;-87
2022/07/12 11:44:50;;;;;;;2.45;1.20;;;30.10;88.90;;;;;;5017861;28;20049;-86
2022/07/12 11:47:22;;;;;;;1.50;1.02;;;30.20;87.70;;;;;;5034232;28;20053;-84
2022/07/12 11:49:54;;;;;;;1.88;1.20;;;30.40;78.00;;;;;;5036243;28;20378;-86
2022/07/12 11:52:22;;;;;;;2.10;1.02;;;30.40;82.20;;;;;;4982781;28;20397;-86
2022/07/12 11:54:50;;;;;;;4.18;3.78;;;30.60;90.40;;;;;;5001048;28;20124;-86
2022/07/12 11:57:21;;;;;;;1.50;0.60;;;30.70;87.80;;;;;;4976754;28;20224;-87
2022/07/12 11:59:47;;;;;;;2.03;1.17;;;30.80;86.80;;;;;;5000480;28;20125;-86
2022/07/12 12:02:15;;;;;;;1.60;1.10;;;31.10;85.00;;;;;;4983771;28;20461;-87
2022/07/12 12:04:50;;;;;;;3.00;1.30;;;31.40;76.10;;;;;;5015525;28;20049;-87
2022/07/12 12:07:18;;;;;;;1.85;0.70;;;31.00;85.90;;;;;;4999331;28;20042;-86
2022/07/12 12:10:11;;;;;;;1.23;0.90;;;31.00;75.00;;;;;;4971094;28;20046;-87
2022/07/12 12:12:42;;;;;;;2.38;0.70;;;30.70;77.20;;;;;;5017524;28;20060;-87
2022/07/12 12:15:12;;;;;;;3.08;2.58;;;30.50;79.80;;;;;;4999104;28;20046;-87
2022/07/12 12:17:56;;;;;;;3.05;0.82;;;30.30;85.60;;;;;;5014017;28;20046;-88
2022/07/12 12:20:25;;;;;;;1.00;0.55;;;30.40;69.80;;;;;;5028771;28;20062;-87
2022/07/12 12:22:54;;;;;;;1.20;0.65;;;30.50;77.20;;;;;;5015876;28;20069;-87
2022/07/12 12:25:21;;;;;;;3.25;0.70;;;30.70;64.50;;;;;;4985092;28;20042;-87
2022/07/12 12:28:02;;;;;;;0.95;0.32;;;30.70;70.00;;;;;;4986215;28;20061;-87
2022/07/12 12:30:30;;;;;;;1.55;0.40;;;30.60;67.50;;;;;;5001502;28;20112;-87
2022/07/12 12:33:00;;;;;;;1.02;0.30;;;30.90;70.80;;;;;;5001940;28;20104;-87
2022/07/12 12:35:39;;;;;;;0.82;0.47;;;31.00;60.50;;;;;;4963472;28;20441;-87
2022/07/12 12:38:15;;;;;;;2.65;0.60;;;31.20;57.80;;;;;;5000176;28;20049;-87
2022/07/12 12:40:51;;;;;;;0.70;0.50;;;31.10;56.70;;;;;;4937075;28;20046;-87
2022/07/12 12:43:21;;;;;;;1.20;0.60;;;31.20;62.30;;;;;;4970381;28;20050;-86
2022/07/12 12:45:52;;;;;;;1.10;0.63;;;31.10;61.90;;;;;;4975472;28;20064;-86
2022/07/12 12:48:20;;;;;;;5.57;0.90;;;31.20;61.20;;;;;;4982594;28;20049;-86
2022/07/12 12:50:52;;;;;;;4.20;3.17;;;31.00;64.40;;;;;;4968034;28;20049;-87
2022/07/12 12:53:23;;;;;;;1.50;0.70;;;31.10;68.00;;;;;;4966703;28;20073;-86
2022/07/12 12:55:54;;;;;;;2.50;1.10;;;31.60;67.80;;;;;;5002406;28;20528;-86
2022/07/12 12:58:22;;;;;;;1.02;0.90;;;31.70;63.70;;;;;;5003806;28;20041;-87
2022/07/12 13:00:51;;;;;;;1.85;0.85;;;31.90;68.30;;;;;;4993175;28;20056;-86
2022/07/12 13:03:19;;;;;;;2.95;1.00;;;32.10;65.40;;;;;;4955117;28;20156;-86
2022/07/12 13:05:47;;;;;;;1.60;0.75;;;32.50;63.70;;;;;;4991616;28;20053;-86